Blue Star Naxos — SZUI — position and weather

sailwx.info

Track history (hours):
 
Tides and Currents Weather Stations Pressure Air Temp Water Temp Dewpoint Dewpoint Depression Visibility Wind Speed Wind Dir Waves Ship Positions

Blue Star Naxos

Last reported at 2016-Aug-31 01:34 UTC. Time now 2016-Aug-31 02:17 UTC.
Position N 37°57' E 023°38'.

Length 124 m; draft 5 m.

Type: Passenger vessel. MMSI: 239923000.

Date/timePositionNaut miles runAvg speedWind from/ knotsBaromVisibWave heightAir tempDewpointWater temp
2016-Aug-31 01:34N 37°57' E 023°38'1212.2
2016-Aug-31 00:33N 37°45' E 023°43'2120.4
2016-Aug-30 23:32N 37°34' E 024°05'4321.8
2016-Aug-30 21:34N 37°15' E 024°54'2412.1
2016-Aug-30 19:34N 37°06' E 025°22'2 0.2
2016-Aug-30 09:33N 37°06' E 025°20'20 9.9
2016-Aug-30 07:34N 37°12' E 024°57'6722.3
2016-Aug-30 04:33N 37°42' E 023°41'1514.9
2016-Aug-30 03:34N 37°57' E 023°38'0 0.0
2016-Aug-30 02:34N 37°57' E 023°38'0 0.0
2016-Aug-30 01:33N 37°57' E 023°38'0 0.0
2016-Aug-30 00:33N 37°57' E 023°38'0 0.0
2016-Aug-29 23:34N 37°57' E 023°38'0 0.0
2016-Aug-29 22:34N 37°57' E 023°38'0 0.0
2016-Aug-29 21:33N 37°57' E 023°38'0 0.0
2016-Aug-29 20:33N 37°57' E 023°38'0 0.0
2016-Aug-29 19:33N 37°57' E 023°38'0 0.0
2016-Aug-29 18:34N 37°57' E 023°38'0 0.0
2016-Aug-29 17:33N 37°57' E 023°38'1111.2
2016-Aug-29 16:34N 37°46' E 023°43'2121.5
2016-Aug-29 15:34N 37°34' E 024°05'3122.5
2016-Aug-29 14:12N 37°31' E 024°44'16 9.2
2016-Aug-29 12:31N 37°29' E 025°03'1111.9
2016-Aug-29 11:33N 37°28' E 025°17'2 1.6
2016-Aug-29 10:33N 37°28' E 025°19'7 7.2
2016-Aug-29 09:33N 37°31' E 025°11'11 7.9
2016-Aug-29 08:07N 37°28' E 024°57'5722.3
2016-Aug-29 05:34N 37°39' E 023°47'1919.4
2016-Aug-29 04:34N 37°57' E 023°38'0 0.2
2016-Aug-29 03:33N 37°57' E 023°38'0 0.0
2016-Aug-29 02:33N 37°57' E 023°38'0 0.0
2016-Aug-29 01:33N 37°57' E 023°38'1716.7
2016-Aug-29 00:33N 37°41' E 023°45'2121.5
2016-Aug-28 23:33N 37°27' E 024°06'4221.1
2016-Aug-28 21:34N 37°10' E 024°54'14 9.2
2016-Aug-28 20:04N 37°09' E 025°12'917.4
2016-Aug-28 19:34N 37°06' E 025°22'2 0.2
2016-Aug-28 09:33N 37°06' E 025°20'2110.6
2016-Aug-28 07:33N 37°09' E 024°54'4922.4
2016-Aug-28 05:22N 37°31' E 023°58'1822.5
2016-Aug-28 04:34N 37°43' E 023°41'1414.3
2016-Aug-28 03:34N 37°57' E 023°38'0 0.0
2016-Aug-28 02:34N 37°57' E 023°38'0 0.0
2016-Aug-28 01:33N 37°57' E 023°38'0 0.0
2016-Aug-28 00:33N 37°57' E 023°38'0 0.0
2016-Aug-27 23:33N 37°57' E 023°38'0 0.0
2016-Aug-27 22:33N 37°57' E 023°38'0 0.0
2016-Aug-27 21:33N 37°57' E 023°38'0 0.0
2016-Aug-27 20:33N 37°57' E 023°38'0 0.0
2016-Aug-27 19:33N 37°57' E 023°38'0 0.0
2016-Aug-27 18:34N 37°57' E 023°38'0 0.0
2016-Aug-27 17:33N 37°57' E 023°38'6 5.7
2016-Aug-27 16:34N 37°51' E 023°39'2121.0
2016-Aug-27 15:33N 37°36' E 023°59'6315.7
2016-Aug-27 11:33N 37°28' E 025°17'2 1.8
2016-Aug-27 10:33N 37°28' E 025°19'9 9.2
2016-Aug-27 09:33N 37°32' E 025°09'10 7.5
2016-Aug-27 08:12N 37°28' E 024°57'4521.3
2016-Aug-27 06:04N 37°34' E 024°01'2918.9
2016-Aug-27 04:33N 37°57' E 023°38'0 0.3
2016-Aug-27 03:33N 37°57' E 023°38'0 0.0
2016-Aug-27 02:33N 37°57' E 023°38'0 0.0
2016-Aug-27 01:33N 37°57' E 023°38'0 0.0
2016-Aug-27 00:34N 37°57' E 023°38'0 0.0
2016-Aug-26 23:34N 37°57' E 023°38'0 0.0
2016-Aug-26 22:33N 37°57' E 023°38'0 0.0
2016-Aug-26 21:33N 37°57' E 023°38'0 0.0
2016-Aug-26 20:33N 37°57' E 023°38'0 0.0
2016-Aug-26 19:34N 37°57' E 023°38'0 0.0
2016-Aug-26 18:33N 37°57' E 023°38'0 0.0
2016-Aug-26 17:33N 37°57' E 023°38'1312.6
2016-Aug-26 16:33N 37°45' E 023°43'2621.8
2016-Aug-26 15:21N 37°32' E 024°12'4014.0
2016-Aug-26 12:31N 37°29' E 025°02'9 9.5
2016-Aug-26 11:33N 37°29' E 025°14'5 4.8
2016-Aug-26 10:33N 37°28' E 025°19'1110.7
2016-Aug-26 09:33N 37°31' E 025°07'8 6.9
2016-Aug-26 08:23N 37°28' E 024°58'6918.0
2016-Aug-26 04:33N 37°57' E 023°38'0 0.1
2016-Aug-26 03:33N 37°57' E 023°38'0 0.0
2016-Aug-26 02:33N 37°57' E 023°38'1 0.6
2016-Aug-26 01:33N 37°56' E 023°38'1313.5
2016-Aug-26 00:34N 37°44' E 023°44'2121.4
2016-Aug-25 23:33N 37°29' E 024°03'4320.9
2016-Aug-25 21:29N 37°09' E 024°52'2412.7
2016-Aug-25 19:34N 37°06' E 025°22'0 0.0
2016-Aug-25 09:33N 37°06' E 025°22'13 8.6
2016-Aug-25 08:05N 37°06' E 025°06'1222.7
2016-Aug-25 07:33N 37°10' E 024°52'6622.0
2016-Aug-25 04:33N 37°43' E 023°41'1413.6
2016-Aug-25 03:33N 37°57' E 023°38'0 0.0
2016-Aug-25 02:34N 37°57' E 023°38'0 0.0
2016-Aug-25 01:34N 37°57' E 023°38'0 0.0
2016-Aug-25 00:33N 37°57' E 023°38'0 0.0
2016-Aug-24 23:34N 37°57' E 023°38'0 0.0
2016-Aug-24 22:33N 37°57' E 023°38'0 0.0
2016-Aug-24 21:34N 37°57' E 023°38'0 0.0
2016-Aug-24 20:33N 37°57' E 023°38'0 0.0
2016-Aug-24 19:34N 37°57' E 023°38'0 0.0
2016-Aug-24 18:34N 37°57' E 023°38'0 0.0
2016-Aug-24 17:33N 37°57' E 023°38'1111.2
2016-Aug-24 16:33N 37°46' E 023°42'2621.6
2016-Aug-24 15:20N 37°33' E 024°11'2622.4
2016-Aug-24 14:10N 37°31' E 024°44'1218.5
2016-Aug-24 13:32N 37°26' E 024°57'4 3.9
2016-Aug-24 12:29N 37°28' E 025°02'910.0
2016-Aug-24 11:33N 37°29' E 025°13'5 5.0
2016-Aug-24 10:34N 37°28' E 025°19'9 9.1
2016-Aug-24 09:34N 37°32' E 025°09'11 8.8
2016-Aug-24 08:19N 37°27' E 024°57'6918.4
2016-Aug-24 04:34N 37°57' E 023°38'0 0.2
2016-Aug-24 03:33N 37°57' E 023°38'0 0.0
2016-Aug-24 02:33N 37°57' E 023°38'0 0.0
2016-Aug-24 01:33N 37°57' E 023°38'1312.6
2016-Aug-24 00:33N 37°45' E 023°43'2121.2
2016-Aug-23 23:33N 37°30' E 024°02'4521.3
2016-Aug-23 21:27N 37°09' E 024°52'1611.7
2016-Aug-23 20:03N 37°10' E 025°13'816.9
2016-Aug-23 19:33N 37°06' E 025°22'1 0.1
2016-Aug-23 09:34N 37°06' E 025°20'2110.3
2016-Aug-23 07:34N 37°12' E 024°56'6722.3
2016-Aug-23 04:33N 37°43' E 023°41'1413.9
2016-Aug-23 03:33N 37°57' E 023°38'0 0.0
2016-Aug-23 02:32N 37°57' E 023°38'0 0.0
2016-Aug-23 01:33N 37°57' E 023°38'0 0.0
2016-Aug-23 00:33N 37°57' E 023°38'0 0.0
2016-Aug-22 23:33N 37°57' E 023°38'0 0.0
2016-Aug-22 22:33N 37°57' E 023°38'0 0.0
2016-Aug-22 21:33N 37°57' E 023°38'0 0.0
2016-Aug-22 20:33N 37°57' E 023°38'0 0.0
2016-Aug-22 19:33N 37°57' E 023°38'0 0.0
2016-Aug-22 18:33N 37°57' E 023°38'0 0.0
2016-Aug-22 17:33N 37°57' E 023°38'6 6.3
2016-Aug-22 16:34N 37°51' E 023°40'2221.7
2016-Aug-22 15:33N 37°36' E 023°60'5015.9
2016-Aug-22 12:25N 37°29' E 025°02'911.0
2016-Aug-22 11:33N 37°30' E 025°14'5 4.6
2016-Aug-22 10:33N 37°28' E 025°19'9 9.1
2016-Aug-22 09:33N 37°32' E 025°09'11 7.8
2016-Aug-22 08:10N 37°27' E 024°57'5721.8
2016-Aug-22 05:33N 37°39' E 023°47'1919.4
2016-Aug-22 04:33N 37°57' E 023°38'0 0.4
2016-Aug-22 03:33N 37°57' E 023°38'0 0.0
2016-Aug-22 02:34N 37°57' E 023°38'0 0.0
2016-Aug-22 01:33N 37°57' E 023°38'1111.0
2016-Aug-22 00:34N 37°46' E 023°42'2120.7
2016-Aug-21 23:31N 37°35' E 024°05'4421.4
2016-Aug-21 21:27N 37°13' E 024°54'1511.3
2016-Aug-21 20:06N 37°10' E 025°13'815.8
2016-Aug-21 19:34N 37°06' E 025°22'7 0.8
2016-Aug-21 10:07N 36°59' E 025°20'713.2
2016-Aug-21 09:33N 37°06' E 025°22'2311.4
2016-Aug-21 07:33N 37°09' E 024°54'5022.7
2016-Aug-21 05:22N 37°31' E 023°58'1822.3
2016-Aug-21 04:33N 37°43' E 023°41'1413.9
2016-Aug-21 03:33N 37°57' E 023°38'0 0.0
2016-Aug-21 02:34N 37°57' E 023°38'  
Track history (hours):
 
Tides and Currents Weather Stations Pressure Air Temp Water Temp Dewpoint Dewpoint Depression Visibility Wind Speed Wind Dir Waves Ship Positions

Blue Star Naxos

Last reported at 2016-Aug-31 01:34 UTC. Time now 2016-Aug-31 02:17 UTC.
Position N 37°57' E 023°38'.

Length 124 m; draft 5 m.

Type: Passenger vessel. MMSI: 239923000.

Date/timePositionNaut miles runAvg speedWind from/ knotsBaromVisibWave heightAir tempDewpointWater temp
2016-Aug-31 01:34N 37°57' E 023°38'1212.2
2016-Aug-31 00:33N 37°45' E 023°43'2120.4
2016-Aug-30 23:32N 37°34' E 024°05'4321.8
2016-Aug-30 21:34N 37°15' E 024°54'2412.1
2016-Aug-30 19:34N 37°06' E 025°22'2 0.2
2016-Aug-30 09:33N 37°06' E 025°20'20 9.9
2016-Aug-30 07:34N 37°12' E 024°57'6722.3
2016-Aug-30 04:33N 37°42' E 023°41'1514.9
2016-Aug-30 03:34N 37°57' E 023°38'0 0.0
2016-Aug-30 02:34N 37°57' E 023°38'0 0.0
2016-Aug-30 01:33N 37°57' E 023°38'0 0.0
2016-Aug-30 00:33N 37°57' E 023°38'0 0.0
2016-Aug-29 23:34N 37°57' E 023°38'0 0.0
2016-Aug-29 22:34N 37°57' E 023°38'0 0.0
2016-Aug-29 21:33N 37°57' E 023°38'0 0.0
2016-Aug-29 20:33N 37°57' E 023°38'0 0.0
2016-Aug-29 19:33N 37°57' E 023°38'0 0.0
2016-Aug-29 18:34N 37°57' E 023°38'0 0.0
2016-Aug-29 17:33N 37°57' E 023°38'1111.2
2016-Aug-29 16:34N 37°46' E 023°43'2121.5
2016-Aug-29 15:34N 37°34' E 024°05'3122.5
2016-Aug-29 14:12N 37°31' E 024°44'16 9.2
2016-Aug-29 12:31N 37°29' E 025°03'1111.9
2016-Aug-29 11:33N 37°28' E 025°17'2 1.6
2016-Aug-29 10:33N 37°28' E 025°19'7 7.2
2016-Aug-29 09:33N 37°31' E 025°11'11 7.9
2016-Aug-29 08:07N 37°28' E 024°57'5722.3
2016-Aug-29 05:34N 37°39' E 023°47'1919.4
2016-Aug-29 04:34N 37°57' E 023°38'0 0.2
2016-Aug-29 03:33N 37°57' E 023°38'0 0.0
2016-Aug-29 02:33N 37°57' E 023°38'0 0.0
2016-Aug-29 01:33N 37°57' E 023°38'1716.7
2016-Aug-29 00:33N 37°41' E 023°45'2121.5
2016-Aug-28 23:33N 37°27' E 024°06'4221.1
2016-Aug-28 21:34N 37°10' E 024°54'14 9.2
2016-Aug-28 20:04N 37°09' E 025°12'917.4
2016-Aug-28 19:34N 37°06' E 025°22'2 0.2
2016-Aug-28 09:33N 37°06' E 025°20'2110.6
2016-Aug-28 07:33N 37°09' E 024°54'4922.4
2016-Aug-28 05:22N 37°31' E 023°58'1822.5
2016-Aug-28 04:34N 37°43' E 023°41'1414.3
2016-Aug-28 03:34N 37°57' E 023°38'0 0.0
2016-Aug-28 02:34N 37°57' E 023°38'0 0.0
2016-Aug-28 01:33N 37°57' E 023°38'0 0.0
2016-Aug-28 00:33N 37°57' E 023°38'0 0.0
2016-Aug-27 23:33N 37°57' E 023°38'0 0.0
2016-Aug-27 22:33N 37°57' E 023°38'0 0.0
2016-Aug-27 21:33N 37°57' E 023°38'0 0.0
2016-Aug-27 20:33N 37°57' E 023°38'0 0.0
2016-Aug-27 19:33N 37°57' E 023°38'0 0.0
2016-Aug-27 18:34N 37°57' E 023°38'0 0.0
2016-Aug-27 17:33N 37°57' E 023°38'6 5.7
2016-Aug-27 16:34N 37°51' E 023°39'2121.0
2016-Aug-27 15:33N 37°36' E 023°59'6315.7
2016-Aug-27 11:33N 37°28' E 025°17'2 1.8
2016-Aug-27 10:33N 37°28' E 025°19'9 9.2
2016-Aug-27 09:33N 37°32' E 025°09'10 7.5
2016-Aug-27 08:12N 37°28' E 024°57'4521.3
2016-Aug-27 06:04N 37°34' E 024°01'2918.9
2016-Aug-27 04:33N 37°57' E 023°38'0 0.3
2016-Aug-27 03:33N 37°57' E 023°38'0 0.0
2016-Aug-27 02:33N 37°57' E 023°38'0 0.0
2016-Aug-27 01:33N 37°57' E 023°38'0 0.0
2016-Aug-27 00:34N 37°57' E 023°38'0 0.0
2016-Aug-26 23:34N 37°57' E 023°38'0 0.0
2016-Aug-26 22:33N 37°57' E 023°38'0 0.0
2016-Aug-26 21:33N 37°57' E 023°38'0 0.0
2016-Aug-26 20:33N 37°57' E 023°38'0 0.0
2016-Aug-26 19:34N 37°57' E 023°38'0 0.0
2016-Aug-26 18:33N 37°57' E 023°38'0 0.0
2016-Aug-26 17:33N 37°57' E 023°38'1312.6
2016-Aug-26 16:33N 37°45' E 023°43'2621.8
2016-Aug-26 15:21N 37°32' E 024°12'4014.0
2016-Aug-26 12:31N 37°29' E 025°02'9 9.5
2016-Aug-26 11:33N 37°29' E 025°14'5 4.8
2016-Aug-26 10:33N 37°28' E 025°19'1110.7
2016-Aug-26 09:33N 37°31' E 025°07'8 6.9
2016-Aug-26 08:23N 37°28' E 024°58'6918.0
2016-Aug-26 04:33N 37°57' E 023°38'0 0.1
2016-Aug-26 03:33N 37°57' E 023°38'0 0.0
2016-Aug-26 02:33N 37°57' E 023°38'1 0.6
2016-Aug-26 01:33N 37°56' E 023°38'1313.5
2016-Aug-26 00:34N 37°44' E 023°44'2121.4
2016-Aug-25 23:33N 37°29' E 024°03'4320.9
2016-Aug-25 21:29N 37°09' E 024°52'2412.7
2016-Aug-25 19:34N 37°06' E 025°22'0 0.0
2016-Aug-25 09:33N 37°06' E 025°22'13 8.6
2016-Aug-25 08:05N 37°06' E 025°06'1222.7
2016-Aug-25 07:33N 37°10' E 024°52'6622.0
2016-Aug-25 04:33N 37°43' E 023°41'1413.6
2016-Aug-25 03:33N 37°57' E 023°38'0 0.0
2016-Aug-25 02:34N 37°57' E 023°38'0 0.0
2016-Aug-25 01:34N 37°57' E 023°38'0 0.0
2016-Aug-25 00:33N 37°57' E 023°38'0 0.0
2016-Aug-24 23:34N 37°57' E 023°38'0 0.0
2016-Aug-24 22:33N 37°57' E 023°38'0 0.0
2016-Aug-24 21:34N 37°57' E 023°38'0 0.0
2016-Aug-24 20:33N 37°57' E 023°38'0 0.0
2016-Aug-24 19:34N 37°57' E 023°38'0 0.0
2016-Aug-24 18:34N 37°57' E 023°38'0 0.0
2016-Aug-24 17:33N 37°57' E 023°38'1111.2
2016-Aug-24 16:33N 37°46' E 023°42'2621.6
2016-Aug-24 15:20N 37°33' E 024°11'2622.4
2016-Aug-24 14:10N 37°31' E 024°44'1218.5
2016-Aug-24 13:32N 37°26' E 024°57'4 3.9
2016-Aug-24 12:29N 37°28' E 025°02'910.0
2016-Aug-24 11:33N 37°29' E 025°13'5 5.0
2016-Aug-24 10:34N 37°28' E 025°19'9 9.1
2016-Aug-24 09:34N 37°32' E 025°09'11 8.8
2016-Aug-24 08:19N 37°27' E 024°57'6918.4
2016-Aug-24 04:34N 37°57' E 023°38'0 0.2
2016-Aug-24 03:33N 37°57' E 023°38'0 0.0
2016-Aug-24 02:33N 37°57' E 023°38'0 0.0
2016-Aug-24 01:33N 37°57' E 023°38'1312.6
2016-Aug-24 00:33N 37°45' E 023°43'2121.2
2016-Aug-23 23:33N 37°30' E 024°02'4521.3
2016-Aug-23 21:27N 37°09' E 024°52'1611.7
2016-Aug-23 20:03N 37°10' E 025°13'816.9
2016-Aug-23 19:33N 37°06' E 025°22'1 0.1
2016-Aug-23 09:34N 37°06' E 025°20'2110.3
2016-Aug-23 07:34N 37°12' E 024°56'6722.3
2016-Aug-23 04:33N 37°43' E 023°41'1413.9
2016-Aug-23 03:33N 37°57' E 023°38'0 0.0
2016-Aug-23 02:32N 37°57' E 023°38'0 0.0
2016-Aug-23 01:33N 37°57' E 023°38'0 0.0
2016-Aug-23 00:33N 37°57' E 023°38'0 0.0
2016-Aug-22 23:33N 37°57' E 023°38'0 0.0
2016-Aug-22 22:33N 37°57' E 023°38'0 0.0
2016-Aug-22 21:33N 37°57' E 023°38'0 0.0
2016-Aug-22 20:33N 37°57' E 023°38'0 0.0
2016-Aug-22 19:33N 37°57' E 023°38'0 0.0
2016-Aug-22 18:33N 37°57' E 023°38'0 0.0
2016-Aug-22 17:33N 37°57' E 023°38'6 6.3
2016-Aug-22 16:34N 37°51' E 023°40'2221.7
2016-Aug-22 15:33N 37°36' E 023°60'5015.9
2016-Aug-22 12:25N 37°29' E 025°02'911.0
2016-Aug-22 11:33N 37°30' E 025°14'5 4.6
2016-Aug-22 10:33N 37°28' E 025°19'9 9.1
2016-Aug-22 09:33N 37°32' E 025°09'11 7.8
2016-Aug-22 08:10N 37°27' E 024°57'5721.8
2016-Aug-22 05:33N 37°39' E 023°47'1919.4
2016-Aug-22 04:33N 37°57' E 023°38'0 0.4
2016-Aug-22 03:33N 37°57' E 023°38'0 0.0
2016-Aug-22 02:34N 37°57' E 023°38'0 0.0
2016-Aug-22 01:33N 37°57' E 023°38'1111.0
2016-Aug-22 00:34N 37°46' E 023°42'2120.7
2016-Aug-21 23:31N 37°35' E 024°05'4421.4
2016-Aug-21 21:27N 37°13' E 024°54'1511.3
2016-Aug-21 20:06N 37°10' E 025°13'815.8
2016-Aug-21 19:34N 37°06' E 025°22'7 0.8
2016-Aug-21 10:07N 36°59' E 025°20'713.2
2016-Aug-21 09:33N 37°06' E 025°22'2311.4
2016-Aug-21 07:33N 37°09' E 024°54'5022.7
2016-Aug-21 05:22N 37°31' E 023°58'1822.3
2016-Aug-21 04:33N 37°43' E 023°41'1413.9
2016-Aug-21 03:33N 37°57' E 023°38'0 0.0
2016-Aug-21 02:34N 37°57' E 023°38'  

Dump ship's entire track history